createdAt,value
2018-05-12T00:00:49.721Z,17.12
2018-05-12T00:01:49.701Z,17.14
2018-05-12T00:02:49.671Z,17.14
2018-05-12T00:03:49.650Z,17.08
2018-05-12T00:04:49.627Z,17.11
2018-05-12T00:05:49.619Z,17.02
2018-05-12T00:06:49.580Z,17.04
2018-05-12T00:07:49.551Z,16.97
2018-05-12T00:08:49.527Z,17.02
2018-05-12T00:09:49.505Z,17.05
2018-05-12T00:10:49.478Z,16.97
2018-05-12T00:11:49.453Z,16.96
2018-05-12T00:12:49.427Z,16.96
2018-05-12T00:13:49.411Z,16.87
2018-05-12T00:14:49.388Z,16.84
2018-05-12T00:15:49.357Z,16.86
2018-05-12T00:16:49.334Z,16.78
2018-05-12T00:17:49.306Z,16.83
2018-05-12T00:18:49.286Z,16.71
2018-05-12T00:19:49.259Z,16.69
2018-05-12T00:20:49.239Z,16.69
2018-05-12T00:21:49.207Z,16.64
2018-05-12T00:22:49.194Z,16.53
2018-05-12T00:23:49.158Z,16.60
2018-05-12T00:24:49.144Z,16.57
2018-05-12T00:25:49.120Z,16.66
2018-05-12T00:26:49.092Z,16.71
2018-05-12T00:27:49.072Z,16.58
2018-05-12T00:28:49.046Z,16.64
2018-05-12T00:29:49.013Z,16.53
2018-05-12T00:30:48.991Z,16.56
2018-05-12T00:31:48.970Z,16.58
2018-05-12T00:32:48.944Z,16.58
2018-05-12T00:33:48.922Z,16.50
2018-05-12T00:34:48.892Z,16.57
2018-05-12T00:35:48.885Z,16.56
2018-05-12T00:36:48.841Z,16.54
2018-05-12T00:37:48.836Z,16.50
2018-05-12T00:38:48.799Z,16.51
2018-05-12T00:39:48.776Z,16.57
2018-05-12T00:40:48.757Z,16.64
2018-05-12T00:41:48.720Z,16.61
2018-05-12T00:42:48.705Z,16.57
2018-05-12T00:43:48.670Z,16.50
2018-05-12T00:44:48.651Z,16.47
2018-05-12T00:45:48.631Z,16.54
2018-05-12T00:46:48.639Z,16.53
2018-05-12T00:47:48.582Z,16.51
2018-05-12T00:48:48.555Z,16.41
2018-05-12T00:49:48.526Z,16.43
2018-05-12T00:50:48.506Z,16.41
2018-05-12T00:51:48.477Z,16.38
2018-05-12T00:52:48.454Z,16.47
2018-05-12T00:53:48.434Z,16.46
2018-05-12T00:54:48.405Z,16.43
2018-05-12T00:55:48.471Z,16.36
2018-05-12T00:56:48.360Z,16.32
2018-05-12T00:57:48.334Z,16.42
2018-05-12T00:58:48.311Z,16.32
2018-05-12T00:59:48.288Z,16.42
2018-05-12T01:00:48.263Z,16.32
2018-05-12T01:01:48.236Z,16.36
2018-05-12T01:02:48.215Z,16.46
2018-05-12T01:03:48.181Z,16.42
2018-05-12T01:04:48.166Z,16.36
2018-05-12T01:05:48.133Z,16.36
2018-05-12T01:06:48.111Z,16.46
2018-05-12T01:07:48.095Z,16.39
2018-05-12T01:08:48.059Z,16.36
2018-05-12T01:09:48.043Z,16.42
2018-05-12T01:10:48.015Z,16.36
2018-05-12T01:11:47.988Z,16.38
2018-05-12T01:12:47.964Z,16.43
2018-05-12T01:13:47.937Z,16.42
2018-05-12T01:14:47.915Z,16.35
2018-05-12T01:15:47.887Z,16.41
2018-05-12T01:16:47.864Z,16.28
2018-05-12T01:17:47.850Z,16.33
2018-05-12T01:18:47.820Z,16.29
2018-05-12T01:19:47.790Z,16.32
2018-05-12T01:20:47.767Z,16.23
2018-05-12T01:21:47.749Z,16.20
2018-05-12T01:22:47.721Z,16.26
2018-05-12T01:23:47.700Z,16.21
2018-05-12T01:24:47.668Z,16.26
2018-05-12T01:25:47.647Z,16.20
2018-05-12T01:26:47.622Z,16.29
2018-05-12T01:27:47.601Z,16.20
2018-05-12T01:28:47.574Z,16.24
2018-05-12T01:29:47.554Z,16.23
2018-05-12T01:30:47.527Z,16.29
2018-05-12T01:31:47.495Z,16.17
2018-05-12T01:32:47.482Z,16.31
2018-05-12T01:33:47.447Z,16.23
2018-05-12T01:34:47.432Z,16.29
2018-05-12T01:35:47.399Z,16.17
2018-05-12T01:36:47.374Z,16.17
2018-05-12T01:37:47.353Z,16.13
2018-05-12T01:38:47.341Z,16.17
2018-05-12T01:39:47.310Z,16.21
2018-05-12T01:40:47.273Z,16.10
2018-05-12T01:41:47.256Z,16.13
2018-05-12T01:42:47.232Z,16.10
2018-05-12T01:43:47.201Z,16.09
2018-05-12T01:44:47.185Z,16.08
2018-05-12T01:45:47.151Z,16.09
2018-05-12T01:46:47.127Z,16.09
2018-05-12T01:47:47.102Z,16.00
2018-05-12T01:48:47.079Z,15.94
2018-05-12T01:49:47.068Z,15.95
2018-05-12T01:50:47.027Z,15.95
2018-05-12T01:51:47.013Z,15.95
2018-05-12T01:52:46.978Z,15.94
2018-05-12T01:53:46.962Z,15.80
2018-05-12T01:54:46.934Z,15.83
2018-05-12T01:55:46.913Z,15.86
2018-05-12T01:56:46.889Z,15.86
2018-05-12T01:57:46.857Z,15.76
2018-05-12T01:58:46.841Z,15.76
2018-05-12T01:59:46.806Z,15.76
2018-05-12T02:00:46.796Z,15.72
2018-05-12T02:01:46.759Z,15.83
2018-05-12T02:02:46.738Z,15.80
2018-05-12T02:03:46.716Z,15.72
2018-05-12T02:04:46.693Z,15.79
2018-05-12T02:05:46.663Z,15.75
2018-05-12T02:06:46.643Z,15.72
2018-05-12T02:07:46.611Z,15.73
2018-05-12T02:08:46.585Z,15.65
2018-05-12T02:09:46.567Z,15.68
2018-05-12T02:10:46.537Z,15.65
2018-05-12T02:11:46.516Z,15.62
2018-05-12T02:12:46.492Z,15.59
2018-05-12T02:13:46.463Z,15.64
2018-05-12T02:14:46.441Z,15.59
2018-05-12T02:15:46.417Z,15.58
2018-05-12T02:16:46.388Z,15.49
2018-05-12T02:17:46.371Z,15.54
2018-05-12T02:18:46.336Z,15.54
2018-05-12T02:19:46.318Z,15.51
2018-05-12T02:20:46.294Z,15.52
2018-05-12T02:21:46.262Z,15.52
2018-05-12T02:22:46.246Z,15.51
2018-05-12T02:23:46.215Z,15.44
2018-05-12T02:24:46.191Z,15.40
2018-05-12T02:25:46.169Z,15.52
2018-05-12T02:26:46.150Z,15.42
2018-05-12T02:27:46.116Z,15.39
2018-05-12T02:28:46.094Z,15.47
2018-05-12T02:29:46.067Z,15.44
2018-05-12T02:30:46.115Z,15.43
2018-05-12T02:31:46.025Z,15.42
2018-05-12T02:32:45.995Z,15.42
2018-05-12T02:33:45.972Z,15.44
2018-05-12T02:34:45.943Z,15.29
2018-05-12T02:35:45.926Z,15.39
2018-05-12T02:36:45.896Z,15.39
2018-05-12T02:37:45.873Z,15.47
2018-05-12T02:38:45.848Z,15.40
2018-05-12T02:39:45.821Z,15.36
2018-05-12T02:40:45.796Z,15.36
2018-05-12T02:41:45.770Z,15.36
2018-05-12T02:42:45.749Z,15.28
2018-05-12T02:43:45.719Z,15.35
2018-05-12T02:44:45.695Z,15.36
2018-05-12T02:45:45.684Z,15.28
2018-05-12T02:46:45.661Z,15.22
2018-05-12T02:47:45.635Z,15.33
2018-05-12T02:48:45.598Z,15.36
2018-05-12T02:49:45.577Z,15.25
2018-05-12T02:50:45.547Z,15.21
2018-05-12T02:51:45.533Z,15.28
2018-05-12T02:52:45.561Z,15.25
2018-05-12T02:53:45.481Z,15.28
2018-05-12T02:54:45.475Z,15.24
2018-05-12T02:55:45.435Z,15.27
2018-05-12T02:56:45.401Z,15.25
2018-05-12T02:57:45.377Z,15.29
2018-05-12T02:58:45.348Z,15.29
2018-05-12T02:59:45.326Z,15.25
2018-05-12T03:00:45.303Z,15.29
2018-05-12T03:01:45.278Z,15.39
2018-05-12T03:02:45.257Z,15.28
2018-05-12T03:03:45.225Z,15.28
2018-05-12T03:04:45.207Z,15.27
2018-05-12T03:05:45.171Z,15.29
2018-05-12T03:06:45.199Z,15.28
2018-05-12T03:07:45.130Z,15.27
2018-05-12T03:08:45.103Z,15.24
2018-05-12T03:09:45.076Z,15.24
2018-05-12T03:10:45.050Z,15.27
2018-05-12T03:11:45.033Z,15.27
2018-05-12T03:12:45.010Z,15.24
2018-05-12T03:13:44.985Z,15.29
2018-05-12T03:14:44.959Z,15.21
2018-05-12T03:15:44.929Z,15.22
2018-05-12T03:16:44.908Z,15.19
2018-05-12T03:17:46.369Z,15.15
2018-05-12T03:18:44.851Z,15.11
2018-05-12T03:19:44.829Z,15.06
2018-05-12T03:20:44.798Z,15.18
2018-05-12T03:21:44.782Z,15.14
2018-05-12T03:22:44.754Z,15.11
2018-05-12T03:23:44.732Z,15.18
2018-05-12T03:24:44.710Z,15.18
2018-05-12T03:25:44.679Z,15.24
2018-05-12T03:26:44.652Z,15.21
2018-05-12T03:27:44.631Z,15.21
2018-05-12T03:28:44.618Z,15.07
2018-05-12T03:29:44.579Z,15.09
2018-05-12T03:30:44.561Z,15.10
2018-05-12T03:31:44.532Z,15.07
2018-05-12T03:32:44.507Z,15.09
2018-05-12T03:33:44.480Z,15.07
2018-05-12T03:34:44.453Z,15.03
2018-05-12T03:35:44.432Z,15.14
2018-05-12T03:36:44.410Z,15.04
2018-05-12T03:37:44.376Z,15.09
2018-05-12T03:38:44.359Z,15.10
2018-05-12T03:39:44.325Z,15.09
2018-05-12T03:40:44.301Z,15.03
2018-05-12T03:41:44.284Z,14.97
2018-05-12T03:42:44.256Z,15.07
2018-05-12T03:43:44.233Z,15.10
2018-05-12T03:44:44.207Z,15.06
2018-05-12T03:45:44.180Z,14.97
2018-05-12T03:46:44.158Z,15.09
2018-05-12T03:47:44.130Z,15.09
2018-05-12T03:48:44.107Z,15.04
2018-05-12T03:49:44.081Z,15.00
2018-05-12T03:50:44.071Z,15.04
2018-05-12T03:51:44.034Z,15.06
2018-05-12T03:52:44.007Z,15.10
2018-05-12T03:53:43.984Z,15.10
2018-05-12T03:54:43.951Z,15.07
2018-05-12T03:55:43.935Z,15.02
2018-05-12T03:56:43.911Z,15.06
2018-05-12T03:57:43.880Z,15.07
2018-05-12T03:58:43.853Z,15.03
2018-05-12T03:59:43.831Z,15.10
2018-05-12T04:00:43.805Z,15.09
2018-05-12T04:01:43.782Z,15.11
2018-05-12T04:02:43.756Z,15.06
2018-05-12T04:03:43.732Z,15.07
2018-05-12T04:04:43.709Z,15.06
2018-05-12T04:05:43.682Z,15.10
2018-05-12T04:06:43.658Z,15.06
2018-05-12T04:07:43.631Z,15.10
2018-05-12T04:08:43.605Z,15.15
2018-05-12T04:09:43.587Z,15.06
2018-05-12T04:10:43.563Z,15.11
2018-05-12T04:11:43.530Z,15.14
2018-05-12T04:12:43.523Z,15.02
2018-05-12T04:13:43.487Z,15.09
2018-05-12T04:14:43.461Z,15.10
2018-05-12T04:15:43.431Z,15.10
2018-05-12T04:16:43.405Z,15.03
2018-05-12T04:17:43.386Z,15.07
2018-05-12T04:18:43.361Z,15.06
2018-05-12T04:19:43.332Z,15.07
2018-05-12T04:20:43.312Z,15.09
2018-05-12T04:21:43.279Z,15.10
2018-05-12T04:22:43.266Z,15.10
2018-05-12T04:23:43.235Z,15.17
2018-05-12T04:24:43.203Z,15.15
2018-05-12T04:25:43.184Z,15.21
2018-05-12T04:26:43.160Z,15.15
2018-05-12T04:27:43.132Z,15.15
2018-05-12T04:28:43.112Z,15.28
2018-05-12T04:29:43.082Z,15.18
2018-05-12T04:30:43.058Z,15.17
2018-05-12T04:31:43.030Z,15.21
2018-05-12T04:32:43.010Z,15.18
2018-05-12T04:33:42.991Z,15.19
2018-05-12T04:34:42.962Z,15.25
2018-05-12T04:35:42.929Z,15.24
2018-05-12T04:36:42.916Z,15.18
2018-05-12T04:37:42.884Z,15.28
2018-05-12T04:38:42.856Z,15.29
2018-05-12T04:39:42.839Z,15.25
2018-05-12T04:40:42.815Z,15.25
2018-05-12T04:41:42.786Z,15.28
2018-05-12T04:42:42.769Z,15.28
2018-05-12T04:43:42.733Z,15.25
2018-05-12T04:44:42.707Z,15.25
2018-05-12T04:45:42.692Z,15.28
2018-05-12T04:46:42.661Z,15.22
2018-05-12T04:47:42.636Z,15.24
2018-05-12T04:48:42.607Z,15.29
2018-05-12T04:49:42.591Z,15.27
2018-05-12T04:50:42.555Z,15.27
2018-05-12T04:51:42.541Z,15.22
2018-05-12T04:52:42.515Z,15.31
2018-05-12T04:53:42.485Z,15.25
2018-05-12T04:54:42.466Z,15.33
2018-05-12T04:55:42.431Z,15.27
2018-05-12T04:56:42.415Z,15.18
2018-05-12T04:57:42.396Z,15.17
2018-05-12T04:58:42.358Z,15.07
2018-05-12T04:59:42.334Z,15.22
2018-05-12T05:00:42.316Z,15.19
2018-05-12T05:01:42.282Z,15.22
2018-05-12T05:02:42.270Z,15.24
2018-05-12T05:03:42.237Z,15.19
2018-05-12T05:04:42.211Z,15.27
2018-05-12T05:05:42.193Z,15.29
2018-05-12T05:06:42.168Z,15.29
2018-05-12T05:07:42.135Z,15.25
2018-05-12T05:08:42.112Z,15.25
2018-05-12T05:09:42.135Z,15.31
2018-05-12T05:10:42.062Z,15.36
2018-05-12T05:11:42.036Z,15.40
2018-05-12T05:12:42.014Z,15.29
2018-05-12T05:13:41.991Z,15.28
2018-05-12T05:14:41.960Z,15.27
2018-05-12T05:15:41.932Z,15.39
2018-05-12T05:16:41.915Z,15.39
2018-05-12T05:17:41.895Z,15.31
2018-05-12T05:18:41.865Z,15.47
2018-05-12T05:19:41.841Z,15.49
2018-05-12T05:20:41.810Z,15.44
2018-05-12T05:21:42.371Z,15.51
2018-05-12T05:22:42.367Z,15.51
2018-05-12T05:23:42.403Z,15.54
2018-05-12T05:24:42.401Z,15.49
2018-05-12T05:25:42.372Z,15.61
2018-05-12T05:26:41.686Z,15.51
2018-05-12T05:27:41.634Z,15.51
2018-05-12T05:28:41.614Z,15.64
2018-05-12T05:29:41.589Z,15.64
2018-05-12T05:30:41.661Z,15.58
2018-05-12T05:31:41.542Z,15.59
2018-05-12T05:32:41.517Z,15.62
2018-05-12T05:33:41.488Z,15.61
2018-05-12T05:34:41.473Z,15.58
2018-05-12T05:35:41.438Z,15.58
2018-05-12T05:36:41.413Z,15.64
2018-05-12T05:37:41.393Z,15.64
2018-05-12T05:38:41.371Z,15.65
2018-05-12T05:39:41.334Z,15.72
2018-05-12T05:40:41.319Z,15.77
2018-05-12T05:41:41.458Z,15.77
2018-05-12T05:42:41.268Z,15.77
2018-05-12T05:43:41.247Z,15.88
2018-05-12T05:44:41.272Z,15.84
2018-05-12T05:45:41.194Z,15.95
2018-05-12T05:46:41.166Z,15.97
2018-05-12T05:47:41.140Z,16.01
2018-05-12T05:48:41.120Z,16.05
2018-05-12T05:49:41.107Z,16.05
2018-05-12T05:50:41.064Z,16.13
2018-05-12T05:51:41.051Z,16.16
2018-05-12T05:52:41.015Z,16.09
2018-05-12T05:53:41.001Z,16.15
2018-05-12T05:54:40.988Z,16.21
2018-05-12T05:55:40.954Z,16.28
2018-05-12T05:56:40.924Z,16.28
2018-05-12T05:57:40.894Z,16.29
2018-05-12T05:58:40.908Z,16.26
2018-05-12T05:59:40.842Z,16.31
2018-05-12T06:00:40.828Z,16.38
2018-05-12T06:01:40.795Z,16.41
2018-05-12T06:02:40.774Z,16.36
2018-05-12T06:03:40.752Z,16.39
2018-05-12T06:04:40.720Z,16.49
2018-05-12T06:05:40.692Z,16.57
2018-05-12T06:06:40.674Z,16.50
2018-05-12T06:07:40.653Z,16.54
2018-05-12T06:08:40.627Z,16.58
2018-05-12T06:09:40.607Z,16.68
2018-05-12T06:10:40.584Z,16.66
2018-05-12T06:11:40.549Z,16.69
2018-05-12T06:12:40.520Z,16.65
2018-05-12T06:13:40.505Z,16.71
2018-05-12T06:14:40.477Z,16.72
2018-05-12T06:15:40.452Z,16.81
2018-05-12T06:16:40.429Z,16.86
2018-05-12T06:17:40.426Z,16.87
2018-05-12T06:18:40.381Z,16.87
2018-05-12T06:19:40.359Z,16.91
2018-05-12T06:20:40.323Z,17.06
2018-05-12T06:21:40.302Z,17.11
2018-05-12T06:22:40.276Z,17.19
2018-05-12T06:23:40.257Z,17.15
2018-05-12T06:24:40.237Z,17.09
2018-05-12T06:25:40.215Z,17.23
2018-05-12T06:26:40.183Z,17.24
2018-05-12T06:27:40.154Z,17.24
2018-05-12T06:28:40.131Z,17.31
2018-05-12T06:29:40.115Z,17.34
2018-05-12T06:30:40.089Z,17.48
2018-05-12T06:31:40.057Z,17.41
2018-05-12T06:32:40.329Z,17.52
2018-05-12T06:33:40.013Z,17.52
2018-05-12T06:34:39.985Z,17.64
2018-05-12T06:35:39.961Z,17.64
2018-05-12T06:36:39.951Z,17.68
2018-05-12T06:37:39.911Z,17.71
2018-05-12T06:38:39.886Z,17.71
2018-05-12T06:39:39.866Z,17.78
2018-05-12T06:40:39.832Z,17.74
2018-05-12T06:41:39.820Z,17.89
2018-05-12T06:42:39.787Z,17.90
2018-05-12T06:43:39.773Z,17.97
2018-05-12T06:44:39.751Z,18.04
2018-05-12T06:45:39.714Z,18.00
2018-05-12T06:46:39.697Z,18.18
2018-05-12T06:47:39.667Z,18.19
2018-05-12T06:48:39.639Z,18.35
2018-05-12T06:49:39.623Z,18.31
2018-05-12T06:50:39.598Z,18.43
2018-05-12T06:51:39.567Z,18.49
2018-05-12T06:52:39.564Z,18.52
2018-05-12T06:53:39.518Z,18.50
2018-05-12T06:54:39.502Z,18.53
2018-05-12T06:55:39.468Z,18.58
2018-05-12T06:56:39.450Z,18.60
2018-05-12T06:57:39.430Z,18.65
2018-05-12T06:58:39.407Z,18.74
2018-05-12T06:59:39.373Z,18.70
2018-05-12T07:00:39.354Z,18.78
2018-05-12T07:01:39.329Z,18.84
2018-05-12T07:02:39.303Z,18.86
2018-05-12T07:03:39.285Z,18.93
2018-05-12T07:04:39.255Z,18.93
2018-05-12T07:05:39.236Z,19.04
2018-05-12T07:06:39.214Z,18.95
2018-05-12T07:07:39.181Z,19.04
2018-05-12T07:08:39.164Z,19.14
2018-05-12T07:09:39.137Z,19.19
2018-05-12T07:10:39.114Z,19.21
2018-05-12T07:11:39.093Z,19.22
2018-05-12T07:12:39.064Z,19.18
2018-05-12T07:13:39.047Z,19.31
2018-05-12T07:14:39.020Z,19.30
2018-05-12T07:15:38.991Z,19.36
2018-05-12T07:16:38.977Z,19.31
2018-05-12T07:17:38.946Z,19.40
2018-05-12T07:18:38.922Z,19.40
2018-05-12T07:19:38.903Z,19.44
2018-05-12T07:20:38.932Z,19.52
2018-05-12T07:21:38.851Z,19.56
2018-05-12T07:22:38.829Z,19.52
2018-05-12T07:23:38.802Z,19.64
2018-05-12T07:24:38.778Z,19.67
2018-05-12T07:25:38.760Z,19.76
2018-05-12T07:26:38.731Z,19.79
2018-05-12T07:27:38.721Z,19.84
2018-05-12T07:28:38.691Z,19.86
2018-05-12T07:29:38.691Z,19.86
2018-05-12T07:30:38.643Z,19.88
2018-05-12T07:31:38.616Z,19.91
2018-05-12T07:32:38.587Z,20.02
2018-05-12T07:33:38.575Z,20.06
2018-05-12T07:34:38.552Z,20.04
2018-05-12T07:35:38.529Z,20.09
2018-05-12T07:36:38.495Z,20.16
2018-05-12T07:37:38.478Z,20.11
2018-05-12T07:38:38.449Z,20.25
2018-05-12T07:39:38.426Z,20.22
2018-05-12T07:40:38.404Z,20.21
2018-05-12T07:41:38.381Z,20.26
2018-05-12T07:42:38.357Z,20.37
2018-05-12T07:43:38.337Z,20.32
2018-05-12T07:44:38.304Z,20.37
2018-05-12T07:45:38.343Z,20.44
2018-05-12T07:46:38.261Z,20.51
2018-05-12T07:47:38.241Z,20.55
2018-05-12T07:48:38.220Z,20.58
2018-05-12T07:49:38.191Z,20.60
2018-05-12T07:50:38.173Z,20.63
2018-05-12T07:51:38.214Z,20.65
2018-05-12T07:52:38.124Z,20.72
2018-05-12T07:53:38.148Z,20.67
2018-05-12T07:54:38.203Z,20.78
2018-05-12T07:55:38.054Z,20.78
2018-05-12T07:56:38.023Z,20.78
2018-05-12T07:57:38.011Z,20.80
2018-05-12T07:58:37.986Z,20.92
2018-05-12T07:59:37.958Z,20.93
2018-05-12T08:00:37.934Z,20.92
2018-05-12T08:01:37.915Z,21.02
2018-05-12T08:02:37.891Z,20.95
2018-05-12T08:03:37.859Z,21.05
2018-05-12T08:04:37.841Z,21.05
2018-05-12T08:05:37.814Z,21.11
2018-05-12T08:06:37.789Z,21.06
2018-05-12T08:07:37.781Z,21.11
2018-05-12T08:08:37.747Z,21.12
2018-05-12T08:09:37.733Z,21.20
2018-05-12T08:10:37.699Z,21.22
2018-05-12T08:11:37.680Z,21.21
2018-05-12T08:12:37.657Z,21.32
2018-05-12T08:13:37.629Z,21.32
2018-05-12T08:14:37.610Z,21.33
2018-05-12T08:15:37.582Z,21.37
2018-05-12T08:16:37.561Z,21.39
2018-05-12T08:17:37.545Z,21.40
2018-05-12T08:18:37.516Z,21.39
2018-05-12T08:19:37.492Z,21.35
2018-05-12T08:20:37.590Z,21.45
2018-05-12T08:21:37.440Z,21.45
2018-05-12T08:22:37.423Z,21.48
2018-05-12T08:23:37.474Z,21.46
2018-05-12T08:24:37.387Z,21.54
2018-05-12T08:25:37.359Z,21.45
2018-05-12T08:26:37.327Z,21.52
2018-05-12T08:27:37.314Z,21.46
2018-05-12T08:28:37.289Z,21.48
2018-05-12T08:29:44.707Z,21.51
2018-05-12T08:30:44.529Z,21.50
2018-05-12T08:32:30.157Z,21.52
2018-05-12T08:33:30.108Z,21.43
2018-05-12T08:35:59.552Z,21.54
2018-05-12T08:36:22.975Z,21.54
2018-05-12T08:38:15.837Z,21.67
2018-05-12T08:39:15.806Z,21.64
2018-05-12T08:41:08.716Z,21.80
2018-05-12T08:42:08.660Z,21.76
2018-05-12T08:44:01.536Z,21.73
2018-05-12T08:45:01.512Z,21.79
2018-05-12T08:46:54.465Z,21.85
2018-05-12T08:47:54.362Z,21.91
2018-05-12T08:48:54.344Z,21.95
2018-05-12T08:49:54.323Z,22.00
2018-05-12T08:50:54.289Z,22.17
2018-05-12T08:51:54.272Z,22.22
2018-05-12T08:52:54.251Z,22.33
2018-05-12T08:53:54.220Z,22.39
2018-05-12T08:54:54.209Z,22.48
2018-05-12T08:55:54.182Z,22.53
2018-05-12T08:56:54.161Z,22.65
2018-05-12T08:57:54.141Z,22.63
2018-05-12T08:58:54.113Z,22.81
2018-05-12T08:59:54.087Z,22.81
2018-05-12T09:00:54.070Z,22.87
2018-05-12T09:01:54.046Z,22.96
2018-05-12T09:02:54.018Z,23.00
2018-05-12T09:03:54.001Z,23.02
2018-05-12T09:04:53.975Z,23.13
2018-05-12T09:05:53.948Z,23.08
2018-05-12T09:06:53.935Z,23.08
2018-05-12T09:07:53.906Z,23.05
2018-05-12T09:08:53.892Z,23.18
2018-05-12T09:09:53.867Z,23.15
2018-05-12T09:10:53.836Z,23.09
2018-05-12T09:11:53.823Z,23.08
2018-05-12T09:12:53.792Z,23.05
2018-05-12T09:13:53.777Z,23.06
2018-05-12T09:14:53.754Z,22.99
2018-05-12T09:15:53.849Z,22.85
2018-05-12T09:16:53.710Z,22.90
2018-05-12T09:17:53.691Z,22.91
2018-05-12T09:18:53.660Z,22.80
2018-05-12T09:19:53.648Z,22.84
2018-05-12T09:20:53.689Z,22.84
2018-05-12T09:21:53.600Z,22.85
2018-05-12T09:22:53.566Z,22.84
2018-05-12T09:23:53.545Z,22.87
2018-05-12T09:24:53.538Z,22.84
2018-05-12T09:25:53.499Z,22.88
2018-05-12T09:26:53.492Z,22.99
2018-05-12T09:27:53.461Z,23.00
2018-05-12T09:28:53.437Z,23.00
2018-05-12T09:29:53.429Z,23.00
2018-05-12T09:30:53.390Z,23.05
2018-05-12T09:31:53.368Z,23.03
2018-05-12T09:32:53.445Z,23.10
2018-05-12T09:33:53.323Z,23.15
2018-05-12T09:34:53.304Z,23.21
2018-05-12T09:35:53.277Z,23.15
2018-05-12T09:36:53.262Z,23.15
2018-05-12T09:37:53.238Z,23.27
2018-05-12T09:38:53.241Z,23.28
2018-05-12T09:39:53.196Z,23.37
2018-05-12T09:40:53.166Z,23.31
2018-05-12T09:41:53.144Z,23.43
2018-05-12T09:42:53.127Z,23.44
2018-05-12T09:43:53.102Z,23.48
2018-05-12T09:44:53.101Z,23.41
2018-05-12T09:45:53.075Z,23.34
2018-05-12T09:46:53.039Z,23.36
2018-05-12T09:47:53.016Z,23.36
2018-05-12T09:48:52.995Z,23.32
2018-05-12T09:49:52.965Z,23.31
2018-05-12T09:50:52.949Z,23.37
2018-05-12T09:51:52.924Z,23.43
2018-05-12T09:52:52.904Z,23.37
2018-05-12T09:53:52.880Z,23.47
2018-05-12T09:54:52.858Z,23.46
2018-05-12T09:55:52.839Z,23.50
2018-05-12T09:56:52.816Z,23.55
2018-05-12T09:57:52.793Z,23.58
2018-05-12T09:58:52.767Z,23.68
2018-05-12T09:59:52.744Z,23.66
2018-05-12T10:00:52.729Z,23.71
2018-05-12T10:01:52.698Z,23.83
2018-05-12T10:02:52.678Z,23.80
2018-05-12T10:03:52.684Z,23.81
2018-05-12T10:04:52.637Z,23.96
2018-05-12T10:05:52.617Z,23.96
2018-05-12T10:06:52.585Z,23.96
2018-05-12T10:07:52.570Z,23.87
2018-05-12T10:08:52.546Z,23.73
2018-05-12T10:09:52.526Z,23.62
2018-05-12T10:10:52.507Z,23.58
2018-05-12T10:11:52.485Z,23.61
2018-05-12T10:12:52.484Z,23.54
2018-05-12T10:13:52.440Z,23.68
2018-05-12T10:14:52.410Z,23.74
2018-05-12T10:15:52.397Z,23.76
2018-05-12T10:16:52.372Z,23.80
2018-05-12T10:17:52.354Z,23.87
2018-05-12T10:18:52.326Z,23.84
2018-05-12T10:19:52.309Z,23.84
2018-05-12T10:20:52.281Z,23.95
2018-05-12T10:21:52.265Z,23.87
2018-05-12T10:22:52.243Z,23.95
2018-05-12T10:23:52.216Z,23.96
2018-05-12T10:24:52.199Z,24.05
2018-05-12T10:25:52.176Z,24.11
2018-05-12T10:26:52.147Z,24.17
2018-05-12T10:27:52.130Z,24.24
2018-05-12T10:28:52.106Z,24.30
2018-05-12T10:29:52.080Z,24.38
2018-05-12T10:30:52.068Z,24.38
2018-05-12T10:31:52.036Z,24.51
2018-05-12T10:32:52.016Z,24.42
2018-05-12T10:33:51.998Z,24.45
2018-05-12T10:34:51.979Z,24.48
2018-05-12T10:35:51.952Z,24.43
2018-05-12T10:36:51.934Z,24.45
2018-05-12T10:37:51.911Z,24.43
2018-05-12T10:38:51.931Z,24.45
2018-05-12T10:39:51.867Z,24.60
2018-05-12T10:40:51.842Z,24.53
2018-05-12T10:41:51.821Z,24.48
2018-05-12T10:42:51.806Z,24.48
2018-05-12T10:43:51.784Z,24.57
2018-05-12T10:44:51.805Z,24.70
2018-05-12T10:45:51.739Z,24.63
2018-05-12T10:46:51.710Z,24.70
2018-05-12T10:47:51.692Z,24.74
2018-05-12T10:48:51.674Z,24.77
2018-05-12T10:49:51.652Z,24.85
2018-05-12T10:50:51.652Z,24.89
2018-05-12T10:51:51.613Z,24.86
2018-05-12T10:52:51.606Z,24.86
2018-05-12T10:53:51.564Z,24.89
2018-05-12T10:54:51.550Z,24.85
2018-05-12T10:55:51.636Z,24.80
2018-05-12T10:56:51.538Z,24.70
2018-05-12T10:57:51.517Z,24.77
2018-05-12T10:58:51.466Z,24.78
2018-05-12T10:59:51.614Z,24.84
2018-05-12T11:00:51.418Z,24.88
2018-05-12T11:01:51.459Z,24.78
2018-05-12T11:02:51.439Z,24.77
2018-05-12T11:03:51.341Z,24.84
2018-05-12T11:04:51.404Z,24.86
2018-05-12T11:05:51.313Z,24.84
2018-05-12T11:06:51.515Z,24.85
2018-05-12T11:07:51.266Z,24.91
2018-05-12T11:08:51.265Z,24.78
2018-05-12T11:09:51.247Z,24.76
2018-05-12T11:10:51.206Z,24.78
2018-05-12T11:11:51.169Z,24.85
2018-05-12T11:12:51.157Z,25.03
2018-05-12T11:13:51.176Z,25.03
2018-05-12T11:14:51.109Z,24.99
2018-05-12T11:15:51.118Z,25.13
2018-05-12T11:16:51.104Z,25.01
2018-05-12T11:17:51.047Z,25.08
2018-05-12T11:18:51.023Z,25.08
2018-05-12T11:19:51.013Z,25.04
2018-05-12T11:20:50.979Z,25.04
2018-05-12T11:21:51.042Z,25.07
2018-05-12T11:22:50.955Z,24.99
2018-05-12T11:23:50.996Z,25.01
2018-05-12T11:24:50.892Z,25.01
2018-05-12T11:25:50.872Z,25.04
2018-05-12T11:26:50.847Z,25.03
2018-05-12T11:27:50.831Z,24.96
2018-05-12T11:28:50.801Z,25.07
2018-05-12T11:29:50.790Z,25.08
2018-05-12T11:30:50.762Z,25.04
2018-05-12T11:31:50.742Z,24.96
2018-05-12T11:32:50.725Z,25.04
2018-05-12T11:33:50.694Z,25.06
2018-05-12T11:34:50.682Z,25.04
2018-05-12T11:35:50.655Z,25.08
2018-05-12T11:36:50.642Z,25.11
2018-05-12T11:37:50.616Z,25.08
2018-05-12T11:38:50.684Z,25.06
2018-05-12T11:39:50.574Z,24.99
2018-05-12T11:40:50.586Z,25.07
2018-05-12T11:41:50.527Z,25.18
2018-05-12T11:42:50.507Z,25.04
2018-05-12T11:43:50.504Z,25.07
2018-05-12T11:44:50.477Z,24.99
2018-05-12T11:45:50.445Z,25.16
2018-05-12T11:46:50.421Z,25.08
2018-05-12T11:47:50.407Z,25.14
2018-05-12T11:48:50.383Z,25.16
2018-05-12T11:49:50.355Z,25.21
2018-05-12T11:50:50.336Z,25.29
2018-05-12T11:51:50.308Z,25.25
2018-05-12T11:52:50.319Z,25.21
2018-05-12T11:53:50.293Z,25.26
2018-05-12T11:54:50.251Z,25.31
2018-05-12T11:55:50.262Z,25.29
2018-05-12T11:56:50.240Z,25.29
2018-05-12T11:57:50.188Z,25.18
2018-05-12T11:58:50.155Z,25.14
2018-05-12T11:59:50.143Z,25.06
2018-05-12T12:00:50.120Z,25.11
2018-05-12T12:01:50.101Z,25.11
2018-05-12T12:02:50.074Z,25.21
2018-05-12T12:03:50.156Z,25.29
2018-05-12T12:04:50.038Z,25.41
2018-05-12T12:05:50.013Z,25.44
2018-05-12T12:06:49.989Z,25.32
2018-05-12T12:07:49.979Z,25.22
2018-05-12T12:08:49.944Z,25.17
2018-05-12T12:09:49.922Z,25.26
2018-05-12T12:10:49.898Z,25.31
2018-05-12T12:11:49.878Z,25.31
2018-05-12T12:12:49.859Z,25.32
2018-05-12T12:13:49.835Z,25.40
2018-05-12T12:14:49.829Z,25.40
2018-05-12T12:15:49.803Z,25.48
2018-05-12T12:16:49.776Z,25.48
2018-05-12T12:17:49.756Z,25.47
2018-05-12T12:18:49.734Z,25.51
2018-05-12T12:19:49.705Z,25.46
2018-05-12T12:20:49.693Z,25.48
2018-05-12T12:21:49.665Z,25.43
2018-05-12T12:22:49.658Z,25.43
2018-05-12T12:23:49.623Z,25.50
2018-05-12T12:24:49.606Z,25.50
2018-05-12T12:25:49.583Z,25.48
2018-05-12T12:26:49.564Z,25.47
2018-05-12T12:27:49.542Z,25.51
2018-05-12T12:28:49.577Z,25.60
2018-05-12T12:29:49.499Z,25.68
2018-05-12T12:30:49.474Z,25.63
2018-05-12T12:31:49.452Z,25.59
2018-05-12T12:32:49.440Z,25.68
2018-05-12T12:33:49.410Z,25.75
2018-05-12T12:34:49.387Z,25.81
2018-05-12T12:35:49.374Z,25.77
2018-05-12T12:36:49.344Z,25.69
2018-05-12T12:37:49.361Z,25.72
2018-05-12T12:38:49.347Z,25.73
2018-05-12T12:39:49.320Z,25.84
2018-05-12T12:40:49.294Z,25.81
2018-05-12T12:41:49.250Z,25.80
2018-05-12T12:42:49.217Z,25.80
2018-05-12T12:43:49.194Z,25.83
2018-05-12T12:44:49.179Z,25.84
2018-05-12T12:45:49.154Z,25.99
2018-05-12T12:46:49.137Z,25.99
2018-05-12T12:47:49.112Z,26.02
2018-05-12T12:48:49.093Z,26.00
2018-05-12T12:49:49.075Z,25.98
2018-05-12T12:50:49.046Z,25.90
2018-05-12T12:51:49.107Z,25.85
2018-05-12T12:52:49.009Z,25.87
2018-05-12T12:53:48.978Z,25.90
2018-05-12T12:54:48.985Z,26.00
2018-05-12T12:55:48.938Z,26.03
2018-05-12T12:56:48.924Z,26.13
2018-05-12T12:57:48.898Z,26.21